createdAt,value
2018-03-02T00:00:58.603Z,-6.15
2018-03-02T00:02:07.976Z,-6.15
2018-03-02T00:03:16.796Z,-6.08
2018-03-02T00:04:25.617Z,-6.08
2018-03-02T00:05:34.437Z,-6.1
2018-03-02T00:06:43.263Z,-6.18
2018-03-02T00:07:52.358Z,-6.08
2018-03-02T00:09:01.329Z,-6.15
2018-03-02T00:10:10.424Z,-6.22
2018-03-02T00:11:19.241Z,-6.16
2018-03-02T00:12:28.061Z,-6.25
2018-03-02T00:13:36.886Z,-6.13
2018-03-02T00:14:45.852Z,-6.16
2018-03-02T00:15:54.672Z,-6.1
2018-03-02T00:17:03.491Z,-6.07
2018-03-02T00:18:12.310Z,-6.39
2018-03-02T00:19:21.129Z,-6.28
2018-03-02T00:20:29.950Z,-6.26
2018-03-02T00:21:38.769Z,-6.25
2018-03-02T00:22:47.866Z,-6.31
2018-03-02T00:23:56.693Z,-6.25
2018-03-02T00:25:05.788Z,-6.19
2018-03-02T00:26:14.906Z,-6.23
2018-03-02T00:27:23.722Z,-6.32
2018-03-02T00:28:32.541Z,-6.26
2018-03-02T00:29:41.358Z,-6.23
2018-03-02T00:30:50.174Z,-6.28
2018-03-02T00:31:59.422Z,-6.26
2018-03-02T00:33:08.247Z,-6.28
2018-03-02T00:34:17.063Z,-6.21
2018-03-02T00:35:25.883Z,-6.22
2018-03-02T00:36:34.975Z,-6.26
2018-03-02T00:37:43.796Z,-6.26
2018-03-02T00:38:52.616Z,-6.28
2018-03-02T00:40:01.433Z,-6.19
2018-03-02T00:41:10.255Z,-6.11
2018-03-02T00:42:19.631Z,-6.31
2018-03-02T00:43:28.654Z,-6.31
2018-03-02T00:44:37.749Z,-6.31
2018-03-02T00:45:46.570Z,-6.11
2018-03-02T00:46:55.390Z,-6.28
2018-03-02T00:48:04.247Z,-6.29
2018-03-02T00:49:13.027Z,-6.26
2018-03-02T00:50:21.842Z,-6.39
2018-03-02T00:51:30.659Z,-6.43
2018-03-02T00:52:39.478Z,-6.37
2018-03-02T00:53:48.297Z,-6.36
2018-03-02T00:54:57.516Z,-6.34
2018-03-02T00:56:06.338Z,-6.4
2018-03-02T00:57:15.436Z,-6.37
2018-03-02T00:58:24.253Z,-6.39
2018-03-02T00:59:33.074Z,-6.34
2018-03-02T01:00:42.194Z,-6.39
2018-03-02T01:01:51.014Z,-6.49
2018-03-02T01:02:59.833Z,-6.44
2018-03-02T01:04:08.652Z,-6.26
2018-03-02T01:05:17.472Z,-6.28
2018-03-02T01:06:26.438Z,-6.4
2018-03-02T01:07:35.257Z,-6.44
2018-03-02T01:08:44.356Z,-6.4
2018-03-02T01:09:53.174Z,-6.29
2018-03-02T01:11:01.992Z,-6.4
2018-03-02T01:12:11.065Z,-6.39
2018-03-02T01:13:19.882Z,-6.36
2018-03-02T01:14:28.698Z,-6.4
2018-03-02T01:15:37.517Z,-6.55
2018-03-02T01:16:46.336Z,-6.62
2018-03-02T01:17:55.303Z,-6.61
2018-03-02T01:19:04.122Z,-6.63
2018-03-02T01:20:12.947Z,-6.47
2018-03-02T01:21:22.035Z,-6.43
2018-03-02T01:22:30.857Z,-6.22
2018-03-02T01:23:39.926Z,-6.25
2018-03-02T01:24:48.739Z,-6.42
2018-03-02T01:25:57.557Z,-6.62
2018-03-02T01:27:06.376Z,-6.5
2018-03-02T01:28:15.205Z,-6.69
2018-03-02T01:29:24.024Z,-6.79
2018-03-02T01:30:32.840Z,-6.73
2018-03-02T01:31:41.932Z,-6.69
2018-03-02T01:32:50.747Z,-6.77
2018-03-02T01:33:59.566Z,-6.73
2018-03-02T01:35:08.387Z,-6.74
2018-03-02T01:36:17.204Z,-6.82
2018-03-02T01:37:26.023Z,-6.87
2018-03-02T01:38:34.841Z,-6.91
2018-03-02T01:39:43.659Z,-6.91
2018-03-02T01:40:52.813Z,-6.86
2018-03-02T01:42:01.633Z,-6.94
2018-03-02T01:43:10.450Z,-6.8
2018-03-02T01:44:19.267Z,-6.79
2018-03-02T01:45:28.086Z,-6.8
2018-03-02T01:46:37.154Z,-6.84
2018-03-02T01:47:45.971Z,-6.65
2018-03-02T01:48:54.789Z,-6.77
2018-03-02T01:50:03.605Z,-6.89
2018-03-02T01:51:12.425Z,-6.91
2018-03-02T01:52:21.295Z,-7.07
2018-03-02T01:53:30.112Z,-6.95
2018-03-02T01:54:38.932Z,-6.87
2018-03-02T01:55:47.751Z,-6.89
2018-03-02T01:56:56.568Z,-6.83
2018-03-02T01:58:05.490Z,-6.68
2018-03-02T01:59:14.594Z,-6.8
2018-03-02T02:00:23.416Z,-7
2018-03-02T02:01:32.240Z,-6.92
2018-03-02T02:02:41.334Z,-6.97
2018-03-02T02:03:50.523Z,-6.98
2018-03-02T02:04:59.540Z,-6.95
2018-03-02T02:06:08.358Z,-7.04
2018-03-02T02:07:17.175Z,-7.07
2018-03-02T02:08:25.994Z,-7
2018-03-02T02:09:35.064Z,-6.98
2018-03-02T02:10:43.884Z,-7.18
2018-03-02T02:11:52.701Z,-7.18
2018-03-02T02:13:01.518Z,-7.21
2018-03-02T02:14:10.336Z,-7.23
2018-03-02T02:15:19.486Z,-7.16
2018-03-02T02:16:28.584Z,-7.15
2018-03-02T02:17:37.399Z,-7.18
2018-03-02T02:18:46.219Z,-7.12
2018-03-02T02:19:55.039Z,-7.18
2018-03-02T02:21:04.259Z,-6.91
2018-03-02T02:22:13.077Z,-6.95
2018-03-02T02:23:21.895Z,-7.02
2018-03-02T02:24:30.712Z,-6.94
2018-03-02T02:25:39.530Z,-7.21
2018-03-02T02:26:48.398Z,-7.12
2018-03-02T02:27:57.216Z,-7.15
2018-03-02T02:29:06.035Z,-7.23
2018-03-02T02:30:14.852Z,-7.21
2018-03-02T02:31:23.955Z,-7.26
2018-03-02T02:32:32.870Z,-7.15
2018-03-02T02:33:41.687Z,-7.16
2018-03-02T02:34:50.505Z,-7.16
2018-03-02T02:35:59.330Z,-7.12
2018-03-02T02:37:08.146Z,-7.25
2018-03-02T02:38:16.977Z,-7.36
2018-03-02T02:39:26.060Z,-7.04
2018-03-02T02:40:34.882Z,-7.07
2018-03-02T02:41:43.698Z,-6.98
2018-03-02T02:42:52.515Z,-7.21
2018-03-02T02:44:01.434Z,-7.01
2018-03-02T02:45:10.535Z,-7.15
2018-03-02T02:46:19.358Z,-7.19
2018-03-02T02:47:28.179Z,-7.19
2018-03-02T02:48:36.999Z,-7.22
2018-03-02T02:49:46.119Z,-7.31
2018-03-02T02:50:54.938Z,-7.4
2018-03-02T02:52:03.755Z,-7.21
2018-03-02T02:53:12.571Z,-7.3
2018-03-02T02:54:21.674Z,-7.16
2018-03-02T02:55:30.772Z,-7.18
2018-03-02T02:56:39.592Z,-7.08
2018-03-02T02:57:48.412Z,-7.26
2018-03-02T02:58:57.231Z,-7.02
2018-03-02T03:00:06.047Z,-7.18
2018-03-02T03:01:14.967Z,-7.34
2018-03-02T03:02:24.071Z,-7.29
2018-03-02T03:03:33.170Z,-7.36
2018-03-02T03:04:41.990Z,-7.39
2018-03-02T03:05:50.813Z,-7.44
2018-03-02T03:07:00.010Z,-7.36
2018-03-02T03:08:08.829Z,-7.41
2018-03-02T03:09:17.646Z,-7.22
2018-03-02T03:10:26.464Z,-7.19
2018-03-02T03:11:35.281Z,-7.16
2018-03-02T03:12:44.476Z,-7.25
2018-03-02T03:13:53.295Z,-7.23
2018-03-02T03:15:02.111Z,-7.43
2018-03-02T03:16:10.930Z,-7.3
2018-03-02T03:17:19.745Z,-7.21
2018-03-02T03:18:28.725Z,-7.22
2018-03-02T03:19:37.816Z,-7.31
2018-03-02T03:20:46.642Z,-7.4
2018-03-02T03:21:55.459Z,-7.52
2018-03-02T03:23:04.277Z,-7.44
2018-03-02T03:24:13.144Z,-7.41
2018-03-02T03:25:21.963Z,-7.55
2018-03-02T03:26:31.052Z,-7.52
2018-03-02T03:27:39.870Z,-7.46
2018-03-02T03:28:48.692Z,-7.36
2018-03-02T03:29:57.509Z,-7.37
2018-03-02T03:31:06.329Z,-7.43
2018-03-02T03:32:15.151Z,-7.48
2018-03-02T03:33:23.967Z,-7.44
2018-03-02T03:34:33.061Z,-7.4
2018-03-02T03:35:41.877Z,-7.51
2018-03-02T03:36:50.693Z,-7.55
2018-03-02T03:37:59.512Z,-7.58
2018-03-02T03:39:08.334Z,-7.54
2018-03-02T03:40:17.151Z,-7.18
2018-03-02T03:41:25.968Z,-7.34
2018-03-02T03:42:34.785Z,-7.61
2018-03-02T03:43:43.601Z,-7.46
2018-03-02T03:44:52.418Z,-7.55
2018-03-02T03:46:01.236Z,-7.61
2018-03-02T03:47:10.206Z,-7.48
2018-03-02T03:48:19.024Z,-7.51
2018-03-02T03:49:27.840Z,-7.51
2018-03-02T03:50:36.656Z,-7.75
2018-03-02T03:51:45.475Z,-7.6
2018-03-02T03:52:54.293Z,-7.57
2018-03-02T03:54:03.109Z,-7.58
2018-03-02T03:55:11.931Z,-7.21
2018-03-02T03:56:20.748Z,-7.34
2018-03-02T03:57:29.566Z,-7.36
2018-03-02T03:58:38.536Z,-7.54
2018-03-02T03:59:47.354Z,-7.54
2018-03-02T04:00:56.455Z,-7.51
2018-03-02T04:02:05.276Z,-7.51
2018-03-02T04:03:14.091Z,-7.57
2018-03-02T04:04:23.310Z,-7.52
2018-03-02T04:05:32.133Z,-7.61
2018-03-02T04:06:41.224Z,-7.62
2018-03-02T04:07:50.043Z,-7.72
2018-03-02T04:08:58.876Z,-7.62
2018-03-02T04:10:07.826Z,-7.64
2018-03-02T04:11:16.917Z,-7.72
2018-03-02T04:12:25.733Z,-7.76
2018-03-02T04:13:34.559Z,-7.79
2018-03-02T04:14:43.373Z,-7.71
2018-03-02T04:15:52.244Z,-7.72
2018-03-02T04:17:01.058Z,-7.62
2018-03-02T04:18:09.878Z,-7.75
2018-03-02T04:19:18.695Z,-7.66
2018-03-02T04:20:27.518Z,-7.71
2018-03-02T04:21:36.634Z,-7.71
2018-03-02T04:22:45.451Z,-7.73
2018-03-02T04:23:54.274Z,-7.79
2018-03-02T04:25:03.643Z,-7.9
2018-03-02T04:26:12.459Z,-7.78
2018-03-02T04:27:21.327Z,-7.99
2018-03-02T04:28:30.433Z,-8.05
2018-03-02T04:29:39.250Z,-7.86
2018-03-02T04:30:48.066Z,-7.86
2018-03-02T04:31:56.881Z,-7.83
2018-03-02T04:33:06.100Z,-7.78
2018-03-02T04:34:14.919Z,-7.78
2018-03-02T04:35:23.737Z,-7.57
2018-03-02T04:36:32.553Z,-7.64
2018-03-02T04:37:41.370Z,-7.8
2018-03-02T04:38:50.192Z,-7.9
2018-03-02T04:39:59.284Z,-7.93
2018-03-02T04:41:08.101Z,-7.96
2018-03-02T04:42:16.923Z,-8.13
2018-03-02T04:43:25.742Z,-8.15
2018-03-02T04:44:34.607Z,-8.01
2018-03-02T04:45:43.425Z,-8.11
2018-03-02T04:46:52.242Z,-7.87
2018-03-02T04:48:01.061Z,-7.79
2018-03-02T04:49:09.878Z,-7.78
2018-03-02T04:50:18.944Z,-7.79
2018-03-02T04:51:28.038Z,-7.99
2018-03-02T04:52:36.853Z,-7.68
2018-03-02T04:53:45.670Z,-8.05
2018-03-02T04:54:54.486Z,-8.11
2018-03-02T04:56:03.453Z,-7.78
2018-03-02T04:57:12.548Z,-7.99
2018-03-02T04:58:21.641Z,-8.02
2018-03-02T04:59:30.458Z,-7.91
2018-03-02T05:00:39.280Z,-8.01
2018-03-02T05:01:48.096Z,-8.02
2018-03-02T05:02:56.911Z,-8.02
2018-03-02T05:04:05.930Z,-8.08
2018-03-02T05:05:14.746Z,-8.11
2018-03-02T05:06:23.564Z,-8.09
2018-03-02T05:07:32.828Z,-8.11
2018-03-02T05:08:41.641Z,-8.09
2018-03-02T05:09:50.456Z,-8.21
2018-03-02T05:10:59.275Z,-8.18
2018-03-02T05:12:08.365Z,-8.16
2018-03-02T05:13:17.184Z,-8.15
2018-03-02T05:14:26.275Z,-8.05
2018-03-02T05:15:35.091Z,-8.08
2018-03-02T05:16:43.908Z,-8.13
2018-03-02T05:17:52.726Z,-8.16
2018-03-02T05:19:01.839Z,-8.24
2018-03-02T05:20:10.657Z,-8.09
2018-03-02T05:21:19.473Z,-8.11
2018-03-02T05:22:28.615Z,-7.9
2018-03-02T05:23:37.431Z,-7.96
2018-03-02T05:24:46.297Z,-8.21
2018-03-02T05:25:55.115Z,-7.97
2018-03-02T05:27:04.207Z,-8.08
2018-03-02T05:28:13.022Z,-8.06
2018-03-02T05:29:22.120Z,-8.19
2018-03-02T05:30:30.989Z,-8.19
2018-03-02T05:31:39.808Z,-8.13
2018-03-02T05:32:48.630Z,-8.24
2018-03-02T05:33:57.439Z,-8.18
2018-03-02T05:35:06.258Z,-8.29
2018-03-02T05:36:15.398Z,-8.34
2018-03-02T05:37:24.212Z,-8.09
2018-03-02T05:38:33.028Z,-8.21
2018-03-02T05:39:41.843Z,-8.21
2018-03-02T05:40:50.661Z,-8.16
2018-03-02T05:41:59.479Z,-8.3
2018-03-02T05:43:08.303Z,-8.36
2018-03-02T05:44:17.110Z,-8.37
2018-03-02T05:45:26.204Z,-8.36
2018-03-02T05:46:35.022Z,-8.44
2018-03-02T05:47:43.991Z,-8.31
2018-03-02T05:48:52.810Z,-8.33
2018-03-02T05:50:01.636Z,-8.37
2018-03-02T05:51:10.451Z,-8.42
2018-03-02T05:52:19.268Z,-8.37
2018-03-02T05:53:28.359Z,-8.33
2018-03-02T05:54:37.174Z,-8.34
2018-03-02T05:55:45.987Z,-8.44
2018-03-02T05:56:54.817Z,-8.4
2018-03-02T05:58:03.620Z,-8.48
2018-03-02T05:59:12.539Z,-8.48
2018-03-02T06:00:21.635Z,-8.48
2018-03-02T06:01:30.457Z,-8.5
2018-03-02T06:02:39.276Z,-8.47
2018-03-02T06:03:48.095Z,-8.37
2018-03-02T06:04:57.214Z,-8.31
2018-03-02T06:06:06.040Z,-8.5
2018-03-02T06:07:14.847Z,-8.47
2018-03-02T06:08:23.666Z,-8.63
2018-03-02T06:09:32.482Z,-8.47
2018-03-02T06:10:41.876Z,-8.48
2018-03-02T06:11:50.693Z,-8.48
2018-03-02T06:12:59.510Z,-8.6
2018-03-02T06:14:08.335Z,-8.48
2018-03-02T06:15:17.425Z,-8.58
2018-03-02T06:16:26.393Z,-8.65
2018-03-02T06:17:35.506Z,-8.57
2018-03-02T06:18:44.324Z,-8.66
2018-03-02T06:19:53.142Z,-8.27
2018-03-02T06:21:01.960Z,-8.36
2018-03-02T06:22:11.158Z,-8.48
2018-03-02T06:23:20.250Z,-8.45
2018-03-02T06:24:29.075Z,-8.54
2018-03-02T06:25:38.161Z,-8.47
2018-03-02T06:26:46.976Z,-8.55
2018-03-02T06:27:56.356Z,-8.63
2018-03-02T06:29:05.174Z,-8.63
2018-03-02T06:30:14.045Z,-8.54
2018-03-02T06:31:23.425Z,-8.6
2018-03-02T06:32:32.264Z,-8.7
2018-03-02T06:33:41.187Z,-8.65
2018-03-02T06:34:51.244Z,-8.36
2018-03-02T06:36:00.354Z,-8.3
2018-03-02T06:37:09.467Z,-8.5
2018-03-02T06:38:18.305Z,-8.47
2018-03-02T06:39:27.633Z,-8.36
2018-03-02T06:40:36.730Z,-8.48
2018-03-02T06:41:45.761Z,-8.58
2018-03-02T06:42:55.096Z,-8.62
2018-03-02T06:44:03.951Z,-8.63
2018-03-02T06:45:12.831Z,-8.52
2018-03-02T06:46:21.670Z,-8.55
2018-03-02T06:47:30.657Z,-8.39
2018-03-02T06:48:39.690Z,-8.48
2018-03-02T06:49:49.317Z,-8.47
2018-03-02T06:50:59.172Z,-8.44
2018-03-02T06:52:08.245Z,-8.51
2018-03-02T06:53:17.815Z,-8.31
2018-03-02T06:54:58.955Z,-8.37
2018-03-02T06:56:07.872Z,-8.29
2018-03-02T06:57:16.691Z,-8.34
2018-03-02T06:58:25.511Z,-8.48
2018-03-02T06:59:34.325Z,-8.52
2018-03-02T07:00:43.142Z,-8.58
2018-03-02T07:01:52.112Z,-8.57
2018-03-02T07:03:00.929Z,-8.47
2018-03-02T07:04:09.745Z,-8.47
2018-03-02T07:05:18.562Z,-8.48
2018-03-02T07:06:27.379Z,-8.51
2018-03-02T07:07:36.495Z,-8.62
2018-03-02T07:08:45.316Z,-8.18
2018-03-02T07:09:54.131Z,-8.48
2018-03-02T07:11:02.948Z,-8.48
2018-03-02T07:12:11.764Z,-8.37
2018-03-02T07:13:20.581Z,-8.45
2018-03-02T07:14:29.399Z,-8.33
2018-03-02T07:15:38.215Z,-8.29
2018-03-02T07:16:47.310Z,-8.36
2018-03-02T07:17:56.127Z,-8.47
2018-03-02T07:19:05.105Z,-8.48
2018-03-02T07:20:13.922Z,-8.51
2018-03-02T07:21:22.738Z,-8.48
2018-03-02T07:22:31.557Z,-8.33
2018-03-02T07:23:40.373Z,-8.08
2018-03-02T07:24:49.238Z,-8.16
2018-03-02T07:25:58.056Z,-8.21
2018-03-02T07:27:06.873Z,-8.19
2018-03-02T07:28:15.689Z,-8.08
2018-03-02T07:29:24.609Z,-8.12
2018-03-02T07:30:33.525Z,-8.15
2018-03-02T07:31:42.342Z,-8.29
2018-03-02T07:32:51.160Z,-8.19
2018-03-02T07:33:59.977Z,-8.34
2018-03-02T07:35:08.793Z,-8.12
2018-03-02T07:36:17.861Z,-8.18
2018-03-02T07:37:26.679Z,-8.3
2018-03-02T07:38:35.500Z,-8.24
2018-03-02T07:39:44.312Z,-8.19
2018-03-02T07:40:53.131Z,-8.31
2018-03-02T07:42:02.282Z,-8.24
2018-03-02T07:43:11.632Z,-8.16
2018-03-02T07:44:20.724Z,-8.15
2018-03-02T07:45:29.542Z,-7.97
2018-03-02T07:46:38.368Z,-7.96
2018-03-02T07:47:47.462Z,-7.9
2018-03-02T07:48:56.282Z,-8.11
2018-03-02T07:50:05.118Z,-8.01
2018-03-02T07:51:13.937Z,-8.08
2018-03-02T07:52:22.754Z,-7.97
2018-03-02T07:53:31.593Z,-7.78
2018-03-02T07:54:40.687Z,-7.62
2018-03-02T07:55:49.505Z,-7.79
2018-03-02T07:56:58.326Z,-7.69
2018-03-02T07:58:07.141Z,-7.69
2018-03-02T07:59:16.001Z,-7.64
2018-03-02T08:00:25.097Z,-7.58
2018-03-02T08:01:33.916Z,-7.55
2018-03-02T08:02:42.734Z,-7.5
2018-03-02T08:03:51.551Z,-7.64
2018-03-02T08:05:00.370Z,-7.52
2018-03-02T08:06:09.189Z,-7.51
2018-03-02T08:07:18.009Z,-7.37
2018-03-02T08:08:26.828Z,-7.41
2018-03-02T08:09:35.645Z,-7.57
2018-03-02T08:10:44.465Z,-7.57
2018-03-02T08:11:53.284Z,-7.6
2018-03-02T08:13:02.204Z,-7.48
2018-03-02T08:14:11.024Z,-7.25
2018-03-02T08:15:19.843Z,-7.4
2018-03-02T08:16:28.661Z,-7.36
2018-03-02T08:17:37.482Z,-7.3
2018-03-02T08:18:46.362Z,-7.25
2018-03-02T08:19:55.176Z,-7.18
2018-03-02T08:21:04.269Z,-7.25
2018-03-02T08:22:13.087Z,-7.22
2018-03-02T08:23:21.905Z,-7.21
2018-03-02T08:24:30.823Z,-7.12
2018-03-02T08:25:39.642Z,-7.05
2018-03-02T08:26:48.462Z,-7
2018-03-02T08:27:57.283Z,-6.92
2018-03-02T08:29:06.107Z,-7.02
2018-03-02T08:30:15.121Z,-7.05
2018-03-02T08:31:23.941Z,-7.04
2018-03-02T08:32:32.758Z,-6.92
2018-03-02T08:33:41.577Z,-7
2018-03-02T08:34:50.401Z,-6.89
2018-03-02T08:35:59.626Z,-6.79
2018-03-02T08:37:08.450Z,-6.83
2018-03-02T08:38:17.451Z,-6.77
2018-03-02T08:39:26.269Z,-6.76
2018-03-02T08:40:35.088Z,-6.69
2018-03-02T08:41:44.105Z,-6.74
2018-03-02T08:42:52.930Z,-6.68
2018-03-02T08:44:01.746Z,-6.71
2018-03-02T08:45:10.566Z,-6.71
2018-03-02T08:46:19.390Z,-6.61
2018-03-02T08:47:28.252Z,-6.55
2018-03-02T08:48:37.350Z,-6.58
2018-03-02T08:49:46.168Z,-6.49
2018-03-02T08:50:54.989Z,-6.47
2018-03-02T08:52:03.807Z,-6.58
2018-03-02T08:53:12.677Z,-6.37
2018-03-02T08:54:21.501Z,-6.42
2018-03-02T08:55:30.597Z,-6.34
2018-03-02T08:56:39.417Z,-6.37
2018-03-02T08:57:48.287Z,-6.32
2018-03-02T08:58:57.108Z,-6.42
2018-03-02T09:00:06.207Z,-6.34
2018-03-02T09:01:15.027Z,-6.11
2018-03-02T09:02:23.845Z,-6.19
2018-03-02T09:03:32.666Z,-6.1
2018-03-02T09:04:41.637Z,-6.1
2018-03-02T09:05:50.456Z,-6.01
2018-03-02T09:06:59.274Z,-6
2018-03-02T09:08:08.095Z,-6
2018-03-02T09:09:16.915Z,-6
2018-03-02T09:10:25.836Z,-5.94
2018-03-02T09:11:34.657Z,-5.92
2018-03-02T09:12:43.476Z,-5.93
2018-03-02T09:13:52.298Z,-5.8
2018-03-02T09:15:01.121Z,-5.68
2018-03-02T09:16:10.363Z,-5.66
2018-03-02T09:17:19.186Z,-5.66
2018-03-02T09:18:28.007Z,-5.54
2018-03-02T09:19:36.829Z,-5.68
2018-03-02T09:20:45.649Z,-5.53
2018-03-02T09:21:54.519Z,-5.53
2018-03-02T09:23:03.340Z,-5.61
2018-03-02T09:24:12.161Z,-5.48
2018-03-02T09:25:20.984Z,-5.47
2018-03-02T09:26:29.805Z,-5.54
2018-03-02T09:27:38.924Z,-5.5
2018-03-02T09:28:47.749Z,-5.46
2018-03-02T09:29:56.850Z,-5.43
2018-03-02T09:31:05.671Z,-5.36
2018-03-02T09:32:14.490Z,-5.29
2018-03-02T09:33:23.461Z,-5.36
2018-03-02T09:34:32.558Z,-5.22
2018-03-02T09:35:41.377Z,-5.25
2018-03-02T09:36:50.197Z,-5.13
2018-03-02T09:37:59.302Z,-5.22
2018-03-02T09:39:08.445Z,-5.11
2018-03-02T09:40:17.270Z,-5.03
2018-03-02T09:41:26.089Z,-5.03
2018-03-02T09:42:34.916Z,-4.96
2018-03-02T09:43:44.039Z,-4.83
2018-03-02T09:44:53.543Z,-4.83
2018-03-02T09:46:02.364Z,-4.71
2018-03-02T09:47:11.185Z,-4.68
2018-03-02T09:48:20.021Z,-4.69
2018-03-02T09:49:28.830Z,-4.69
2018-03-02T09:50:37.802Z,-4.65
2018-03-02T09:51:46.623Z,-4.68
2018-03-02T09:52:55.446Z,-4.5
2018-03-02T09:54:04.282Z,-4.53
2018-03-02T09:55:13.087Z,-4.4
2018-03-02T09:56:21.964Z,-4.36
2018-03-02T09:57:31.060Z,-4.29
2018-03-02T09:58:39.879Z,-4.5
2018-03-02T09:59:48.704Z,-4.46
2018-03-02T10:00:57.527Z,-4.32
2018-03-02T10:02:06.497Z,-4.29
2018-03-02T10:03:15.320Z,-4.21
2018-03-02T10:04:24.149Z,-4.14
2018-03-02T10:05:32.970Z,-4
2018-03-02T10:06:41.793Z,-4
2018-03-02T10:07:50.716Z,-3.94
2018-03-02T10:08:59.537Z,-3.83
2018-03-02T10:10:08.363Z,-3.97
2018-03-02T10:11:17.458Z,-3.86
2018-03-02T10:12:26.279Z,-3.79
2018-03-02T10:13:35.420Z,-3.79
2018-03-02T10:14:44.246Z,-3.81
2018-03-02T10:15:53.066Z,-3.76
2018-03-02T10:17:01.890Z,-3.82
2018-03-02T10:18:10.994Z,-3.79
2018-03-02T10:19:19.866Z,-3.83
2018-03-02T10:20:28.688Z,-3.69
2018-03-02T10:21:37.511Z,-3.72
2018-03-02T10:22:46.352Z,-3.67
2018-03-02T10:23:55.174Z,-3.53
2018-03-02T10:25:04.272Z,-3.41
2018-03-02T10:26:13.094Z,-3.35
2018-03-02T10:27:21.917Z,-3.38
2018-03-02T10:28:31.018Z,-3.38
2018-03-02T10:29:40.137Z,-3.46
2018-03-02T10:30:49.011Z,-3.42
2018-03-02T10:31:57.836Z,-3.17
2018-03-02T10:33:06.659Z,-3.21
2018-03-02T10:34:15.483Z,-3.23
2018-03-02T10:35:24.307Z,-3.17
2018-03-02T10:36:33.428Z,-3.31
2018-03-02T10:37:42.262Z,-3.15
2018-03-02T10:38:51.086Z,-3.1
2018-03-02T10:40:00.188Z,-3.1
2018-03-02T10:41:09.012Z,-3.21
2018-03-02T10:42:17.987Z,-3.25
2018-03-02T10:43:26.810Z,-3.14
2018-03-02T10:44:35.634Z,-3.12
2018-03-02T10:45:44.457Z,-3.18
2018-03-02T10:46:53.281Z,-3.1
2018-03-02T10:48:02.963Z,-2.92
2018-03-02T10:49:11.788Z,-2.97
2018-03-02T10:50:20.608Z,-2.94
2018-03-02T10:51:29.434Z,-2.96
2018-03-02T10:52:38.257Z,-2.84
2018-03-02T10:53:47.082Z,-2.77
2018-03-02T10:54:55.905Z,-2.82
2018-03-02T10:56:04.730Z,-2.73
2018-03-02T10:57:13.554Z,-2.49
2018-03-02T10:58:22.652Z,-2.66
2018-03-02T10:59:31.826Z,-2.67
2018-03-02T11:00:40.655Z,-2.5
2018-03-02T11:01:49.504Z,-2.58
2018-03-02T11:02:58.302Z,-2.49
2018-03-02T11:04:07.122Z,-2.5
2018-03-02T11:05:15.946Z,-2.46
2018-03-02T11:06:24.788Z,-2.45
2018-03-02T11:07:33.611Z,-2.46
2018-03-02T11:08:42.433Z,-2.49
2018-03-02T11:09:51.257Z,-2.5
2018-03-02T11:11:00.483Z,-2.35
2018-03-02T11:12:09.304Z,-2.37
2018-03-02T11:13:18.133Z,-2.27
2018-03-02T11:14:26.950Z,-2.27
2018-03-02T11:15:35.775Z,-2.23
2018-03-02T11:16:44.701Z,-2.27
2018-03-02T11:17:53.524Z,-2.16
2018-03-02T11:19:02.392Z,-2.09
2018-03-02T11:20:11.452Z,-1.98
2018-03-02T11:21:20.565Z,-2.16
2018-03-02T11:22:29.671Z,-2.08
2018-03-02T11:23:38.509Z,-2.1
2018-03-02T11:24:47.334Z,-2
2018-03-02T11:25:56.159Z,-1.95
2018-03-02T11:27:04.984Z,-1.85
2018-03-02T11:28:13.856Z,-1.9
2018-03-02T11:29:22.680Z,-1.9
2018-03-02T11:30:31.504Z,-1.82
2018-03-02T11:31:40.327Z,-1.74
2018-03-02T11:32:49.151Z,-1.69
2018-03-02T11:33:58.123Z,-1.77
2018-03-02T11:35:06.961Z,-1.72
2018-03-02T11:36:15.788Z,-1.85
2018-03-02T11:37:24.621Z,-1.85
2018-03-02T11:38:33.443Z,-1.74
2018-03-02T11:39:42.520Z,-1.67
2018-03-02T11:40:51.621Z,-1.73
2018-03-02T11:42:00.448Z,-1.62
2018-03-02T11:43:09.275Z,-1.54
2018-03-02T11:44:18.098Z,-1.64
2018-03-02T11:45:26.979Z,-1.59
2018-03-02T11:46:35.813Z,-1.51
2018-03-02T11:47:44.643Z,-1.48
2018-03-02T11:48:53.466Z,-1.55
2018-03-02T11:50:02.571Z,-1.52
2018-03-02T11:51:11.547Z,-1.48
2018-03-02T11:52:20.372Z,-1.43
2018-03-02T11:53:29.204Z,-1.33
2018-03-02T11:54:38.308Z,-1.12
2018-03-02T11:55:47.136Z,-1.05
2018-03-02T11:56:56.063Z,-1.01
2018-03-02T11:58:04.887Z,-1.04
2018-03-02T11:59:13.713Z,-0.91
2018-03-02T12:00:22.812Z,-0.97
2018-03-02T12:01:31.636Z,-0.95
2018-03-02T12:02:40.613Z,-0.97
2018-03-02T12:03:49.439Z,-0.82
2018-03-02T12:04:58.280Z,-0.85
2018-03-02T12:06:07.379Z,-0.78
2018-03-02T12:07:16.209Z,-0.85
2018-03-02T12:08:25.183Z,-0.76
2018-03-02T12:09:34.011Z,-0.92
2018-03-02T12:10:42.837Z,-0.82
2018-03-02T12:11:51.664Z,-0.67
2018-03-02T12:13:00.489Z,-0.65
2018-03-02T12:14:09.617Z,-0.44
2018-03-02T12:15:18.444Z,-0.52
2018-03-02T12:16:27.269Z,-0.55
2018-03-02T12:17:36.104Z,-0.46
2018-03-02T12:18:44.933Z,-0.4
2018-03-02T12:19:53.859Z,-0.46
2018-03-02T12:21:02.687Z,-0.44
2018-03-02T12:22:11.518Z,-0.39
2018-03-02T12:23:20.346Z,-0.26
2018-03-02T12:24:29.173Z,-0.14
2018-03-02T12:25:38.155Z,-0.15
2018-03-02T12:26:46.980Z,-0.16
2018-03-02T12:27:55.807Z,-0.01
2018-03-02T12:29:04.638Z,0.14
2018-03-02T12:30:13.467Z,0.17
2018-03-02T12:31:22.731Z,0.31
2018-03-02T12:32:31.563Z,0.29
2018-03-02T12:33:40.406Z,0.35
2018-03-02T12:34:49.227Z,0.41
2018-03-02T12:35:58.057Z,0.28
2018-03-02T12:37:06.886Z,0.2
2018-03-02T12:38:15.716Z,0.08
2018-03-02T12:39:24.548Z,0.1
2018-03-02T12:40:33.655Z,0.11
2018-03-02T12:41:42.487Z,0.28
2018-03-02T12:42:52.122Z,0.29
2018-03-02T12:44:00.953Z,0.26
2018-03-02T12:45:09.785Z,0.23
2018-03-02T12:46:18.617Z,0.26
2018-03-02T12:47:27.449Z,0.31
2018-03-02T12:48:36.661Z,0.31
2018-03-02T12:49:45.493Z,0.33
2018-03-02T12:50:54.325Z,0.31
2018-03-02T12:52:03.155Z,0.38
2018-03-02T12:53:11.988Z,0.31
2018-03-02T12:54:21.178Z,0.39
2018-03-02T12:55:29.986Z,0.38
2018-03-02T12:56:38.820Z,0.39
2018-03-02T12:57:47.649Z,0.42
2018-03-02T12:58:57.039Z,0.55
2018-03-02T13:00:06.070Z,0.58
2018-03-02T13:01:14.900Z,0.5
2018-03-02T13:02:23.731Z,0.61
2018-03-02T13:03:32.562Z,0.58
2018-03-02T13:04:41.392Z,0.73
2018-03-02T13:05:50.401Z,0.75
2018-03-02T13:06:59.205Z,0.83
2018-03-02T13:08:08.039Z,0.87
2018-03-02T13:09:16.868Z,0.75
2018-03-02T13:10:25.702Z,0.78
2018-03-02T13:11:34.685Z,0.8
2018-03-02T13:12:43.570Z,1.04
2018-03-02T13:13:52.680Z,1
2018-03-02T13:15:01.523Z,0.93
2018-03-02T13:16:10.633Z,0.76
2018-03-02T13:17:19.618Z,0.78
2018-03-02T13:18:28.451Z,0.61
2018-03-02T13:19:37.283Z,0.68
2018-03-02T13:20:46.116Z,0.79
2018-03-02T13:21:54.948Z,0.73
2018-03-02T13:23:04.361Z,0.84
2018-03-02T13:24:13.472Z,1.04
2018-03-02T13:25:22.305Z,0.8
2018-03-02T13:26:31.146Z,0.83
2018-03-02T13:27:39.995Z,0.97
2018-03-02T13:28:49.240Z,0.94
2018-03-02T13:29:58.083Z,0.94
2018-03-02T13:31:06.925Z,0.9
2018-03-02T13:32:15.766Z,0.87
2018-03-02T13:33:24.610Z,0.76
2018-03-02T13:34:33.926Z,0.96
2018-03-02T13:35:42.764Z,1.05
2018-03-02T13:36:51.884Z,0.98
2018-03-02T13:38:00.731Z,1.02
2018-03-02T13:39:09.567Z,0.9
2018-03-02T13:40:18.743Z,0.83
2018-03-02T13:41:27.585Z,0.97
2018-03-02T13:42:36.427Z,0.94
2018-03-02T13:43:45.259Z,0.9
2018-03-02T13:44:54.091Z,0.75
2018-03-02T13:46:03.074Z,0.93
2018-03-02T13:47:11.906Z,1
2018-03-02T13:48:20.741Z,1.06
2018-03-02T13:49:29.573Z,1
2018-03-02T13:50:38.405Z,1.16
2018-03-02T13:51:47.502Z,1.24
2018-03-02T13:52:56.333Z,1.27
2018-03-02T13:54:05.165Z,1.48
2018-03-02T13:55:14.011Z,1.5
2018-03-02T13:56:22.844Z,1.58
2018-03-02T13:57:31.828Z,1.76
2018-03-02T13:58:41.235Z,1.51
2018-03-02T13:59:50.085Z,1.5
2018-03-02T14:00:59.195Z,1.65
2018-03-02T14:02:08.031Z,1.55
2018-03-02T14:03:17.113Z,1.63
2018-03-02T14:04:25.943Z,1.69
2018-03-02T14:05:34.778Z,1.77
2018-03-02T14:06:43.609Z,1.47
2018-03-02T14:07:52.442Z,1.27
2018-03-02T14:09:01.312Z,1.14
2018-03-02T14:10:10.576Z,1.09
2018-03-02T14:11:19.413Z,1.36
2018-03-02T14:12:28.249Z,1.47
2018-03-02T14:13:37.085Z,1.41
2018-03-02T14:14:45.969Z,1.54
2018-03-02T14:15:54.816Z,1.7
2018-03-02T14:17:03.793Z,1.65
2018-03-02T14:18:12.822Z,1.5
2018-03-02T14:19:22.011Z,1.23
2018-03-02T14:20:31.287Z,1.16
2018-03-02T14:21:40.133Z,1.14
2018-03-02T14:22:48.968Z,1.41
2018-03-02T14:23:57.805Z,1.63
2018-03-02T14:25:06.694Z,1.5
2018-03-02T14:26:15.624Z,1.66
2018-03-02T14:27:24.459Z,1.42
2018-03-02T14:28:33.359Z,1.44
2018-03-02T14:29:42.197Z,1.65
2018-03-02T14:30:51.037Z,1.83
2018-03-02T14:32:00.099Z,1.73
2018-03-02T14:33:08.933Z,1.73
2018-03-02T14:34:18.362Z,1.77
2018-03-02T14:35:27.571Z,1.81
2018-03-02T14:36:37.503Z,1.44
2018-03-02T14:37:46.725Z,1.77
2018-03-02T14:38:55.856Z,1.84
2018-03-02T14:40:05.083Z,2.05
2018-03-02T14:41:14.180Z,1.98
2018-03-02T14:42:23.585Z,1.9
2018-03-02T14:43:32.870Z,1.95
2018-03-02T14:44:42.553Z,2.05
2018-03-02T14:45:51.418Z,2.21
2018-03-02T14:47:00.758Z,2.07
2018-03-02T14:48:09.613Z,2.09
2018-03-02T14:49:18.657Z,2.14
2018-03-02T14:50:27.552Z,2
2018-03-02T14:51:36.520Z,1.91
2018-03-02T14:52:45.371Z,1.55
2018-03-02T14:53:54.529Z,1.27
2018-03-02T14:55:03.586Z,1.36
2018-03-02T14:56:12.429Z,1.47
2018-03-02T14:57:21.548Z,1.51